プラハ の空港の天気 - METARとTAF

ルズィニエ国際空港(プラハ) ( LKPR / PRG ) - チェコ プラハ
飛行場実況気象(Metar)
観測時間04/15 06:00 CEST (04/15 04:00 UTC)
風向・風速西北西 4m/s
視程10km以上
天気現象
なし
気温-1℃
湿度86%
気圧1024hPa
METARLKPR 150400Z 29007KT CAVOK M01/M03 Q1024 NOSIG
過去の天気等 Google飛行場航空写真 Wunderground天気予報

過去48時間のMETAR

飛行場予報(TAF)
発表時間: 4/15 01:00 CEST (4/14 23:00 UTC)
予報対象時間: 15日2時 CEST ~ 16日8時 CEST
風向・風速北西 4m/s
視程10km以上
なし
15日8時 CEST ~ 15日11時 CEST に徐々に
視程10km以上
全天の8割程度の雲 雲底高度 1070m
15日12時 CEST ~ 15日18時 CEST に一時的に
風向・風速北 6m/s 瞬間風速 12m/s
天気現象弱いしゅう雨
全天の8割程度の雲 雲底高度 700m
15日18時 CEST ~ 16日2時 CEST に一時的に
視程5000m
天気現象弱い雨雪
全天の4割程度の雲 雲底高度 300m
全天の8割程度の雲 雲底高度 460m
15日20時 CEST ~ 16日2時 CEST に 確率 40% で一時的に
視程3000m
天気現象弱い雪
全天の8割程度の雲 雲底高度 240m
TAF LKPR 142300Z 1500/1606 32008KT CAVOK
BECMG 1506/1509 9999 BKN035
TEMPO 1510/1516 35012G24KT -SHRA BKN023
TEMPO 1516/1600 5000 -RASN SCT010 BKN015
PROB40 TEMPO 1518/1600 3000 -SN BKN008